Latest Weather Observations for Gudgenby

IDN60901

Issued at 4:31 pm EDT Saturday 3 December 2022 (issued every 10 minutes, with the page automatically refreshed every 10 minutes)

About weather observations | Map of Canberra area stations | Latest observations for Canberra area | Other Formats
Station Details ID: 250072 Name: AFSD - GUDGENBY Lat: -35.73 Lon: 148.98 Height: 1035.0 m

Portable automatic weather stations (PAWS) are operated by other organisations, such as Fire and Emergency Services, and are included here by agreement. Portable stations may be deployed to a location for a short period and their location may be subject to change without notice. Wind observations from these stations are provided from heights of either three (3) or ten (10) metres above ground level (AGL).

Data from the previous 72 hours. | See also: Recent months for locations in Aust Capital Territory
Date/Time
EDT
Temp
°C
App
Temp
°C
Dew
Point
°C
Rel
Hum
%
Delta-T
°C
Wind Press
QNH
hPa
Press
MSL
hPa
Rain since
9am
mm
Dir  Spd
km/h
Gust
km/h
Spd
kts
Gust
kts
03/04:00pm 23.3 20.2 10.2 43 7.5 N 17 22 9 12 1016.0 - 0.0
03/03:30pm 22.3 19.8 9.8 45 7.1 NNE 13 19 7 10 1016.1 - 0.0
03/03:00pm 22.4 19.8 9.3 43 7.4 N 13 22 7 12 1016.3 - 0.0
03/02:30pm 23.5 20.7 11.3 46 7.2 NNE 17 22 9 12 1016.6 - 0.0
03/02:00pm 21.7 17.7 8.2 42 7.4 N 19 28 10 15 1016.8 - 0.0
03/01:30pm 22.7 19.6 9.0 41 7.7 NE 15 22 8 12 1017.0 - 0.0
03/01:00pm 21.7 17.3 8.8 43 7.2 NNE 22 28 12 15 1017.3 - 0.0
03/12:30pm 21.7 18.4 9.7 46 6.8 NE 17 24 9 13 1017.4 - 0.0
03/12:00pm 21.2 17.6 8.3 43 7.1 NE 17 22 9 12 1017.7 - 0.0
03/11:30am 21.6 18.4 11.4 52 5.9 N 19 24 10 13 1017.7 - 0.0
03/11:00am 20.2 16.3 8.6 47 6.4 NE 19 24 10 13 1018.1 - 0.0
03/10:30am 19.8 18.5 9.9 53 5.6 NW 7 13 4 7 1018.1 - 0.0
03/10:00am 18.7 16.8 11.9 64 3.9 WNW 13 15 7 8 1018.2 - 0.0
03/09:30am 18.6 18.7 12.8 69 3.4 N 4 7 2 4 1018.5 - 0.0
03/09:00am 17.3 16.4 11.4 68 3.4 NW 7 11 4 6 1018.7 - 0.0
03/08:30am 15.3 14.8 10.8 74 2.5 WSW 4 6 2 3 1018.8 - 0.0
03/08:00am 13.5 12.5 10.3 81 1.8 SSW 6 7 3 4 1018.6 - 0.0
03/07:30am 11.8 11.0 9.7 87 1.1 SW 4 6 2 3 1018.4 - 0.0
03/07:00am 11.0 10.1 9.4 90 0.8 WNW 4 6 2 3 1018.1 - 0.0
03/06:30am 10.6 9.8 9.5 93 0.6 WNW 4 7 2 4 1018.0 - 0.0
03/06:00am 10.2 8.7 9.3 94 0.5 WNW 7 9 4 5 1017.9 - 0.0
03/05:30am 10.1 9.6 9.4 95 0.4 NNW 2 4 1 2 1017.6 - 0.0
03/05:00am 10.1 9.9 9.2 94 0.5 CALM 0 0 0 0 1017.3 - 0.0
03/04:30am 10.1 8.7 9.0 93 0.6 WNW 6 7 3 4 1017.4 - 0.0
03/04:00am 10.3 9.3 9.0 92 0.7 NW 4 6 2 3 1017.4 - 0.0
03/03:30am 10.3 8.8 9.0 92 0.7 WNW 7 9 4 5 1017.4 - 0.0
03/03:00am 10.4 8.6 9.3 93 0.6 WNW 9 9 5 5 1017.6 - 0.0
03/02:30am 10.5 8.6 9.1 91 0.7 W 9 11 5 6 1017.8 - 0.0
03/02:00am 10.6 8.0 9.2 91 0.7 W 13 15 7 8 1017.9 - 0.0
03/01:30am 10.8 8.2 9.2 90 0.8 WNW 13 15 7 8 1018.1 - 0.0
03/01:00am 11.0 8.4 9.5 90 0.8 WNW 13 15 7 8 1018.3 - 0.0
03/12:30am 11.2 9.1 9.7 90 0.8 W 11 13 6 7 1018.5 - 0.0
03/12:00am 11.3 9.2 9.7 90 0.9 W 11 13 6 7 1018.7 - 0.0
 
Date/Time
EDT
Temp
°C
App
Temp
°C
Dew
Point
°C
Rel
Hum
%
Delta-T
°C
Wind Press
QNH
hPa
Press
MSL
hPa
Rain since
9am
mm
Dir  Spd
km/h
Gust
km/h
Spd
kts
Gust
kts
02/11:30pm 11.4 10.0 9.6 89 1.0 WNW 7 9 4 5 1018.8 - 0.0
02/11:00pm 11.8 10.6 9.7 87 1.1 WSW 6 7 3 4 1018.8 - 0.0
02/10:30pm 12.2 10.5 10.0 86 1.2 SW 9 13 5 7 1018.9 - 0.0
02/10:00pm 12.4 9.9 9.8 84 1.4 W 13 15 7 8 1018.7 - 0.0
02/09:30pm 12.4 9.6 10.0 85 1.3 WSW 15 19 8 10 1018.6 - 0.0
02/09:00pm 12.8 10.8 10.0 83 1.5 WSW 11 13 6 7 1018.4 - 0.0
02/08:30pm 13.1 11.0 9.9 81 1.7 WSW 11 13 6 7 1018.2 - 0.0
02/08:00pm 13.4 10.6 10.0 80 1.9 WSW 15 19 8 10 1017.8 - 0.0
02/07:30pm 14.1 11.3 10.1 77 2.2 WSW 15 20 8 11 1017.6 - 0.0
02/07:00pm 15.1 11.5 9.7 70 3.0 WSW 19 24 10 13 1017.1 - 0.0
02/06:30pm 15.1 11.1 10.3 73 2.7 WSW 22 26 12 14 1016.7 - 0.0
02/06:00pm 16.1 12.4 10.2 68 3.3 WSW 20 26 11 14 1016.1 - 0.0
02/05:30pm 17.3 14.0 10.9 66 3.6 WSW 19 20 10 11 1015.8 - 0.0
02/05:00pm 17.8 14.5 9.5 58 4.6 WSW 17 20 9 11 1015.7 - 0.0
02/04:30pm 20.3 16.9 5.9 39 7.6 NE 13 20 7 11 1015.6 - 0.0
02/04:00pm 21.3 18.3 7.8 41 7.4 ENE 13 15 7 8 1015.7 - 0.0
02/03:30pm 20.5 15.9 5.6 37 7.8 NE 19 26 10 14 1015.7 - 0.0
02/03:00pm 20.1 14.9 5.7 39 7.5 NE 22 28 12 15 1015.8 - 0.0
02/02:30pm 19.8 15.4 7.5 45 6.6 N 20 26 11 14 1016.0 - 0.0
02/02:00pm 19.7 15.2 7.1 44 6.7 NNE 20 30 11 16 1016.0 - 0.0
02/01:30pm 19.6 14.9 5.9 40 7.2 NNE 20 24 11 13 1016.3 - 0.0
02/01:00pm 19.1 17.3 9.4 53 5.4 NNW 9 17 5 9 1016.5 - 0.0
02/12:30pm 19.3 17.9 9.4 52 5.5 N 7 11 4 6 1016.9 - 0.0
02/12:00pm 18.3 17.3 11.1 63 4.1 NNW 7 13 4 7 1017.2 - 0.0
02/11:30am 17.4 16.8 10.4 63 3.9 S 4 7 2 4 1017.3 - 0.0
02/11:00am 18.1 17.3 9.5 57 4.8 NNW 4 6 2 3 1017.6 - 0.0
02/10:30am 16.5 15.6 10.5 67 3.4 W 6 7 3 4 1017.9 - 0.0
02/10:00am 14.0 12.5 9.3 73 2.5 WNW 7 11 4 6 1018.0 - 0.0
02/09:30am 13.8 12.4 9.4 75 2.4 NW 7 9 4 5 1018.0 - 0.0
02/09:00am 12.7 11.2 8.3 74 2.3 NNW 6 7 3 4 1018.2 - 6.0
02/08:30am 11.6 9.9 8.4 81 1.7 NW 7 9 4 5 1018.0 - 6.0
02/08:00am 11.3 10.1 9.7 90 0.9 WNW 6 6 3 3 1017.8 - 6.0
02/07:30am 10.6 9.9 8.5 87 1.1 NNW 2 2 1 1 1017.3 - 6.0
02/07:00am 11.5 10.6 9.1 85 1.3 WNW 4 6 2 3 1017.1 - 6.0
02/06:30am 10.1 9.5 8.8 92 0.7 W 2 4 1 2 1016.7 - 6.0
02/06:00am 9.0 7.8 8.1 94 0.5 NNE 4 4 2 2 1016.5 - 6.0
02/05:30am 9.1 7.7 8.7 97 0.2 N 6 6 3 3 1016.4 - 5.8
02/05:00am 9.5 8.6 9.1 97 0.2 N 4 6 2 3 1016.1 - 5.8
02/04:30am 9.9 9.4 9.3 96 0.3 NNW 2 4 1 2 1015.9 - 5.8
02/04:00am 10.1 9.5 9.1 93 0.5 SE 2 4 1 2 1015.9 - 5.8
02/03:30am 10.2 9.7 9.3 94 0.5 E 2 4 1 2 1016.1 - 5.8
02/03:00am 10.2 9.7 9.4 95 0.4 ESE 2 4 1 2 1016.2 - 5.8
02/02:30am 10.2 8.9 9.3 94 0.5 WNW 6 7 3 4 1016.2 - 5.8
02/02:00am 10.3 9.5 9.6 95 0.4 NW 4 6 2 3 1016.3 - 5.8
02/01:30am 10.4 9.3 9.9 97 0.3 NW 6 6 3 3 1016.7 - 5.8
02/01:00am 10.6 9.6 10.2 97 0.2 NNW 6 9 3 5 1016.8 - 5.8
02/12:30am 10.7 10.8 10.2 97 0.3 CALM 0 4 0 2 1017.1 - 5.6
02/12:00am 10.7 10.8 10.1 96 0.3 CALM 0 0 0 0 1017.5 - 5.6
 
Date/Time
EDT
Temp
°C
App
Temp
°C
Dew
Point
°C
Rel
Hum
%
Delta-T
°C
Wind Press
QNH
hPa
Press
MSL
hPa
Rain since
9am
mm
Dir  Spd
km/h
Gust
km/h
Spd
kts
Gust
kts
01/11:30pm 10.6 10.7 10.0 96 0.3 CALM 0 4 0 2 1017.5 - 5.6
01/11:00pm 10.7 9.6 10.1 96 0.3 W 6 7 3 4 1017.5 - 5.4
01/10:30pm 10.8 9.8 10.3 97 0.3 NW 6 9 3 5 1017.6 - 4.4
01/10:00pm 10.9 8.9 10.0 94 0.5 WSW 11 15 6 8 1017.6 - 3.8
01/09:30pm 11.0 10.0 10.4 96 0.3 WSW 6 11 3 6 1017.2 - 3.2
01/09:00pm 11.1 10.0 10.5 96 0.3 SSW 7 7 4 4 1016.7 - 2.8
01/08:30pm 11.5 9.6 10.5 94 0.5 WSW 11 15 6 8 1016.5 - 1.4
01/08:00pm 11.9 9.3 10.6 92 0.7 W 15 17 8 9 1016.1 - 0.8
01/07:30pm 12.8 10.9 10.5 86 1.3 WSW 11 17 6 9 1015.8 - 0.0
01/07:00pm 13.7 10.5 9.9 78 2.1 SW 17 22 9 12 1015.3 - 0.0
01/06:30pm 14.1 11.6 9.6 74 2.4 SW 13 17 7 9 1014.8 - 0.0
01/06:00pm 14.6 11.7 9.7 72 2.7 WSW 15 26 8 14 1014.4 - 0.0
01/05:30pm 15.2 12.2 9.3 68 3.2 SW 15 20 8 11 1014.0 - 0.0
01/05:00pm 16.5 12.4 10.2 66 3.5 SW 22 26 12 14 1014.0 - 0.0
01/04:30pm 15.9 12.7 10.1 68 3.2 WSW 17 22 9 12 1014.1 - 0.0
01/04:00pm 16.3 12.7 10.0 66 3.5 WSW 19 26 10 14 1014.1 - 0.0
01/03:30pm 16.5 12.8 10.0 65 3.6 W 20 22 11 12 1014.3 - 0.0
01/03:00pm 18.5 15.4 10.4 59 4.6 WSW 17 20 9 11 1014.6 - 0.0
01/02:30pm 18.1 15.2 11.1 63 4.0 W 17 20 9 11 1014.8 - 0.0
01/02:00pm 17.7 15.6 9.7 59 4.4 W 11 17 6 9 1015.1 - 0.0
01/01:30pm 17.9 17.0 11.5 66 3.7 WSW 7 11 4 6 1015.4 - 0.0
01/01:00pm 17.6 17.0 10.5 63 4.0 NNE 4 9 2 5 1015.8 - 0.0
01/12:30pm 16.5 15.7 9.8 64 3.7 SSW 4 6 2 3 1016.4 - 0.0
01/12:00pm 14.0 13.7 10.2 78 2.1 SSW 2 6 1 3 1017.0 - 0.0
01/11:30am 13.5 12.6 9.2 75 2.3 W 4 7 2 4 1017.1 - 0.0
01/11:00am 12.1 10.2 9.2 82 1.5 W 9 9 5 5 1017.3 - 0.0
01/10:30am 12.1 9.9 9.4 83 1.4 W 11 15 6 8 1017.4 - 0.0
01/10:00am 12.2 10.0 9.2 82 1.6 W 11 15 6 8 1017.3 - 0.0
01/09:30am 12.3 10.4 9.1 81 1.7 WSW 9 11 5 6 1017.2 - 0.0
01/09:00am 11.5 9.2 9.1 85 1.3 W 11 13 6 7 1017.3 - 0.0
01/08:30am 11.6 10.0 8.9 83 1.4 W 7 9 4 5 1016.9 - 0.0
01/08:00am 11.3 11.1 9.1 86 1.2 CALM 0 0 0 0 1016.6 - 0.0
01/07:30am 10.8 9.5 9.2 90 0.8 SE 6 7 3 4 1016.3 - 0.0
01/07:00am 10.4 10.3 9.3 93 0.6 CALM 0 2 0 1 1016.1 - 0.0
01/06:30am 9.6 8.6 8.7 94 0.5 N 4 4 2 2 1015.9 - 0.0
01/06:00am 9.5 8.0 8.5 93 0.5 ENE 6 6 3 3 1015.7 - 0.0
01/05:30am 9.8 9.1 8.6 92 0.6 SW 2 4 1 2 1015.7 - 0.0
01/05:00am 9.7 8.6 8.5 92 0.6 ENE 4 6 2 3 1015.4 - 0.0
01/04:30am 10.2 9.6 8.9 92 0.7 NW 2 4 1 2 1015.3 - 0.0
01/04:00am 10.4 9.0 8.7 89 0.9 W 6 6 3 3 1015.3 - 0.0
01/03:30am 10.3 8.9 8.8 90 0.8 W 6 7 3 4 1015.3 - 0.0
01/03:00am 10.6 8.6 8.7 88 1.0 W 9 9 5 5 1015.3 - 0.0
01/02:30am 10.6 9.5 8.3 86 1.2 WSW 4 6 2 3 1015.5 - 0.0
01/02:00am 10.5 8.5 8.5 87 1.0 WSW 9 11 5 6 1015.8 - 0.0
01/01:30am 11.5 9.1 8.8 83 1.4 SW 11 17 6 9 1016.0 - 0.0
01/01:00am 11.9 8.4 8.8 81 1.6 SW 17 22 9 12 1016.2 - 0.0
01/12:30am 12.3 8.9 9.3 82 1.6 WSW 17 20 9 11 1016.4 - 0.0
01/12:00am 12.6 8.7 9.5 81 1.7 SW 20 26 11 14 1016.4 - 0.0
 
Date/Time
EDT
Temp
°C
App
Temp
°C
Dew
Point
°C
Rel
Hum
%
Delta-T
°C
Wind Press
QNH
hPa
Press
MSL
hPa
Rain since
9am
mm
Dir  Spd
km/h
Gust
km/h
Spd
kts
Gust
kts
30/11:30pm 12.7 9.8 9.8 82 1.6 WSW 15 15 8 8 1016.4 - 0.0
30/11:00pm 13.0 11.3 9.9 81 1.7 WSW 9 11 5 6 1016.6 - 0.0
30/10:30pm 13.2 12.5 10.1 81 1.7 SSW 4 9 2 5 1016.7 - 0.0
30/10:00pm 13.5 11.8 9.9 79 2.0 SW 9 11 5 6 1016.5 - 0.0
30/09:30pm 13.7 12.2 10.5 81 1.8 SW 9 11 5 6 1016.4 - 0.0
30/09:00pm 14.0 12.4 10.1 77 2.1 SW 9 13 5 7 1016.2 - 0.0
30/08:30pm 14.3 12.3 10.1 76 2.3 W 11 15 6 8 1015.8 - 0.0
30/08:00pm 14.5 12.0 9.7 73 2.6 W 13 19 7 10 1015.5 - 0.0
30/07:30pm 15.1 12.2 9.5 69 3.1 W 15 22 8 12 1015.3 - 0.0
30/07:00pm 15.4 12.0 9.2 66 3.4 W 17 20 9 11 1015.0 - 0.0
30/06:30pm 16.0 11.6 8.9 62 3.8 W 22 28 12 15 1014.7 - 0.0
30/06:00pm 16.3 14.6 8.3 59 4.3 SW 7 11 4 6 1014.5 - 0.0
30/05:30pm 16.1 13.1 9.2 63 3.8 SW 15 19 8 10 1014.4 - 0.0
30/05:00pm 16.4 12.4 9.0 61 4.0 SW 20 24 11 13 1014.4 - 0.0

Latest Capital City Observations: Canberra | Sydney | Melbourne | Brisbane | Adelaide | Perth | Hobart | Darwin

Other formats

Comma delimited format used in spreadsheet applications
http://www.bom.gov.au/fwo/IDN60903/IDN60903.99765.axf

JavaScript Object Notation format (JSON) in row-major order
http://www.bom.gov.au/fwo/IDN60903/IDN60903.99765.json

Data quality

Most of these data are generated automatically and are frequently updated. Quality checks on data are not normally performed. It is possible for incorrect values to appear. Refer to information at About Latest Weather Observations and please check the disclaimer before using these data.